createdAt,value
2017-09-15T00:02:25.426Z,19.30
2017-09-15T00:04:54.533Z,20.57
2017-09-15T00:07:22.842Z,21.67
2017-09-15T00:09:51.170Z,20.07
2017-09-15T00:12:19.481Z,26.27
2017-09-15T00:14:47.790Z,30.83
2017-09-15T00:17:16.865Z,24.27
2017-09-15T00:19:45.170Z,19.90
2017-09-15T00:22:13.498Z,27.07
2017-09-15T00:24:41.802Z,19.20
2017-09-15T00:27:10.878Z,17.70
2017-09-15T00:29:39.194Z,14.83
2017-09-15T00:32:07.501Z,16.27
2017-09-15T00:34:35.825Z,15.03
2017-09-15T00:37:04.129Z,13.83
2017-09-15T00:39:32.442Z,18.53
2017-09-15T00:42:00.759Z,13.83
2017-09-15T00:44:29.057Z,9.80
2017-09-15T00:46:57.362Z,13.67
2017-09-15T00:49:25.670Z,14.13
2017-09-15T00:51:53.986Z,10.57
2017-09-15T00:54:23.077Z,13.43
2017-09-15T00:56:52.152Z,10.90
2017-09-15T00:59:20.458Z,11.90
2017-09-15T01:01:48.773Z,15.90
2017-09-15T01:04:17.069Z,11.73
2017-09-15T01:06:45.389Z,13.90
2017-09-15T01:09:13.690Z,13.60
2017-09-15T01:11:42.029Z,12.57
2017-09-15T01:14:11.093Z,12.80
2017-09-15T01:16:39.390Z,9.97
2017-09-15T01:19:07.701Z,20.80
2017-09-15T01:21:36.038Z,16.03
2017-09-15T01:24:04.352Z,9.70
2017-09-15T01:26:32.657Z,15.77
2017-09-15T01:29:01.022Z,12.93
2017-09-15T01:31:29.370Z,8.90
2017-09-15T01:33:58.496Z,7.70
2017-09-15T01:36:26.802Z,16.67
2017-09-15T01:38:55.134Z,15.80
2017-09-15T01:41:23.439Z,10.67
2017-09-15T01:43:51.759Z,12.90
2017-09-15T01:46:20.080Z,7.17
2017-09-15T01:48:48.403Z,11.90
2017-09-15T01:51:16.725Z,10.83
2017-09-15T01:53:45.034Z,16.20
2017-09-15T01:56:14.110Z,15.03
2017-09-15T01:58:42.429Z,22.47
2017-09-15T02:01:10.738Z,18.10
2017-09-15T02:03:39.809Z,16.97
2017-09-15T02:06:08.110Z,7.00
2017-09-15T02:08:37.205Z,18.03
2017-09-15T02:11:06.290Z,16.67
2017-09-15T02:13:35.361Z,14.40
2017-09-15T02:16:03.672Z,19.43
2017-09-15T02:18:32.761Z,23.17
2017-09-15T02:21:01.833Z,25.17
2017-09-15T02:23:30.133Z,21.13
2017-09-15T02:25:59.220Z,18.90
2017-09-15T02:28:28.293Z,19.87
2017-09-15T02:30:56.626Z,15.63
2017-09-15T02:33:24.934Z,14.13
2017-09-15T02:35:53.242Z,9.93
2017-09-15T02:38:21.551Z,14.53
2017-09-15T02:40:49.850Z,14.03
2017-09-15T02:43:18.178Z,16.00
2017-09-15T02:45:46.487Z,20.40
2017-09-15T02:48:14.815Z,18.10
2017-09-15T02:50:43.134Z,15.10
2017-09-15T02:53:11.439Z,20.00
2017-09-15T02:55:39.745Z,19.33
2017-09-15T02:58:08.059Z,24.87
2017-09-15T03:00:37.161Z,17.13
2017-09-15T03:03:05.480Z,17.07
2017-09-15T03:05:33.802Z,13.83
2017-09-15T03:08:02.879Z,19.33
2017-09-15T03:10:31.186Z,24.83
2017-09-15T03:12:59.523Z,17.60
2017-09-15T03:15:27.850Z,17.43
2017-09-15T03:17:56.158Z,25.80
2017-09-15T03:20:24.473Z,22.40
2017-09-15T03:22:52.787Z,12.10
2017-09-15T03:25:21.124Z,14.73
2017-09-15T03:27:49.443Z,20.17
2017-09-15T03:30:17.753Z,26.43
2017-09-15T03:32:46.070Z,24.97
2017-09-15T03:35:15.200Z,22.03
2017-09-15T03:37:43.534Z,22.97
2017-09-15T03:40:12.618Z,22.30
2017-09-15T03:42:40.924Z,15.07
2017-09-15T03:45:09.253Z,25.13
2017-09-15T03:47:37.562Z,26.80
2017-09-15T03:50:05.894Z,21.33
2017-09-15T03:52:34.194Z,21.23
2017-09-15T03:55:02.506Z,18.23
2017-09-15T03:57:31.630Z,23.57
2017-09-15T03:59:59.932Z,21.13
2017-09-15T04:02:28.277Z,22.80
2017-09-15T04:04:56.599Z,24.83
2017-09-15T04:07:24.906Z,16.03
2017-09-15T04:09:54.041Z,24.47
2017-09-15T04:12:22.353Z,17.23
2017-09-15T04:14:50.702Z,21.60
2017-09-15T04:17:19.890Z,18.50
2017-09-15T04:19:48.202Z,21.47
2017-09-15T04:22:16.531Z,20.13
2017-09-15T04:24:44.829Z,18.23
2017-09-15T04:27:13.154Z,18.60
2017-09-15T04:29:41.453Z,23.30
2017-09-15T04:32:09.757Z,19.70
2017-09-15T04:34:38.065Z,25.00
2017-09-15T04:37:06.369Z,21.30
2017-09-15T04:39:35.474Z,13.83
2017-09-15T04:42:04.589Z,21.70
2017-09-15T04:44:32.897Z,13.57
2017-09-15T04:47:01.224Z,20.37
2017-09-15T04:49:30.301Z,24.37
2017-09-15T04:51:58.711Z,23.97
2017-09-15T04:54:27.012Z,23.57
2017-09-15T04:56:55.322Z,20.77
2017-09-15T04:59:23.647Z,18.50
2017-09-15T05:01:51.977Z,22.37
2017-09-15T05:04:20.328Z,19.53
2017-09-15T05:06:48.639Z,25.03
2017-09-15T05:09:16.942Z,14.50
2017-09-15T05:11:46.063Z,24.73
2017-09-15T05:14:15.162Z,22.60
2017-09-15T05:16:43.506Z,13.60
2017-09-15T05:19:11.830Z,21.03
2017-09-15T05:21:40.134Z,27.13
2017-09-15T05:24:08.451Z,17.77
2017-09-15T05:26:37.522Z,17.53
2017-09-15T05:29:05.910Z,19.43
2017-09-15T05:31:34.234Z,20.37
2017-09-15T05:34:02.542Z,12.93
2017-09-15T05:36:30.851Z,19.00
2017-09-15T05:38:59.157Z,14.47
2017-09-15T05:41:27.489Z,13.97
2017-09-15T05:43:55.797Z,18.80
2017-09-15T05:46:24.871Z,19.53
2017-09-15T05:48:53.203Z,9.27
2017-09-15T05:51:21.513Z,14.47
2017-09-15T05:53:49.854Z,17.13
2017-09-15T05:56:18.150Z,13.93
2017-09-15T05:58:46.463Z,14.60
2017-09-15T06:01:14.773Z,20.23
2017-09-15T06:03:43.073Z,13.50
2017-09-15T06:09:08.482Z,10.77
2017-09-15T06:11:36.781Z,13.03
2017-09-15T06:14:05.101Z,14.57
2017-09-15T06:16:33.408Z,19.40
2017-09-15T06:19:01.749Z,10.80
2017-09-15T06:21:30.062Z,12.00
2017-09-15T06:23:58.367Z,11.57
2017-09-15T06:26:26.684Z,15.37
2017-09-15T06:28:55.008Z,17.17
2017-09-15T06:31:23.543Z,19.57
2017-09-15T06:33:51.854Z,15.07
2017-09-15T06:36:20.199Z,11.97
2017-09-15T06:38:48.508Z,12.90
2017-09-15T06:41:16.821Z,9.17
2017-09-15T06:43:45.129Z,16.00
2017-09-15T06:46:13.438Z,15.57
2017-09-15T06:48:41.755Z,13.23
2017-09-15T06:51:10.053Z,12.73
2017-09-15T06:53:38.395Z,12.97
2017-09-15T06:56:06.711Z,9.87
2017-09-15T06:58:35.009Z,12.63
2017-09-15T07:01:04.108Z,13.03
2017-09-15T07:03:33.183Z,14.17
2017-09-15T07:06:01.505Z,12.40
2017-09-15T07:08:29.805Z,8.73
2017-09-15T07:10:58.141Z,8.73
2017-09-15T07:13:33.132Z,11.43
2017-09-15T07:16:01.468Z,7.07
2017-09-15T07:18:29.786Z,12.40
2017-09-15T07:20:59.605Z,8.40
2017-09-15T07:23:27.915Z,6.70
2017-09-15T07:25:56.978Z,8.37
2017-09-15T07:28:25.290Z,7.53
2017-09-15T07:30:53.595Z,9.93
2017-09-15T07:33:21.929Z,7.50
2017-09-15T07:35:50.995Z,9.47
2017-09-15T07:38:19.314Z,10.30
2017-09-15T07:40:48.410Z,12.83
2017-09-15T07:43:17.506Z,11.07
2017-09-15T07:45:46.582Z,10.33
2017-09-15T07:48:14.896Z,13.03
2017-09-15T07:50:43.227Z,14.30
2017-09-15T07:53:11.532Z,10.60
2017-09-15T07:55:40.616Z,14.40
2017-09-15T07:58:08.922Z,9.70
2017-09-15T08:00:37.225Z,12.33
2017-09-15T08:03:05.542Z,9.10
2017-09-15T08:05:33.854Z,8.60
2017-09-15T08:08:02.277Z,16.27
2017-09-15T08:10:30.575Z,8.00
2017-09-15T08:12:58.883Z,14.83
2017-09-15T08:15:27.208Z,7.53
2017-09-15T08:17:55.501Z,7.93
2017-09-15T08:20:25.317Z,11.93
2017-09-15T08:22:54.382Z,10.53
2017-09-15T08:25:22.791Z,8.03
2017-09-15T08:27:51.108Z,13.43
2017-09-15T08:30:19.406Z,10.83
2017-09-15T08:32:47.823Z,6.30
2017-09-15T08:35:16.130Z,8.13
2017-09-15T08:37:45.207Z,10.47
2017-09-15T08:40:13.505Z,5.17
2017-09-15T08:42:41.844Z,9.00
2017-09-15T08:45:10.190Z,16.07
2017-09-15T08:47:38.516Z,10.60
2017-09-15T08:50:07.615Z,15.50
2017-09-15T08:52:36.781Z,11.93
2017-09-15T08:55:05.103Z,11.47
2017-09-15T08:57:34.182Z,9.70
2017-09-15T09:00:03.280Z,7.17
2017-09-15T09:02:31.619Z,6.77
2017-09-15T09:04:59.931Z,6.80
2017-09-15T09:07:29.010Z,13.20
2017-09-15T09:09:57.308Z,14.40
2017-09-15T09:12:26.397Z,9.83
2017-09-15T09:14:54.693Z,5.40
2017-09-15T09:17:23.793Z,3.20
2017-09-15T09:19:52.090Z,5.27
2017-09-15T09:22:20.390Z,7.40
2017-09-15T09:24:48.702Z,6.20
2017-09-15T09:27:17.015Z,5.57
2017-09-15T09:29:45.338Z,8.87
2017-09-15T09:32:13.647Z,7.50
2017-09-15T09:34:42.738Z,7.87
2017-09-15T09:37:11.801Z,11.00
2017-09-15T09:39:40.101Z,11.20
2017-09-15T09:42:08.405Z,8.20
2017-09-15T09:44:36.704Z,9.50
2017-09-15T09:47:05.028Z,11.43
2017-09-15T09:49:33.329Z,11.60
2017-09-15T09:52:02.434Z,7.83
2017-09-15T09:54:30.739Z,5.27
2017-09-15T09:56:59.089Z,6.83
2017-09-15T09:59:27.402Z,11.43
2017-09-15T10:01:55.711Z,8.07
2017-09-15T10:04:24.021Z,10.83
2017-09-15T10:06:52.321Z,5.70
2017-09-15T10:09:20.661Z,5.00
2017-09-15T10:11:49.733Z,8.63
2017-09-15T10:14:18.024Z,3.77
2017-09-15T10:16:47.106Z,4.53
2017-09-15T10:19:15.409Z,5.50
2017-09-15T10:21:44.485Z,3.30
2017-09-15T10:24:12.791Z,6.67
2017-09-15T10:26:41.127Z,6.57
2017-09-15T10:29:09.435Z,5.60
2017-09-15T10:31:38.501Z,6.37
2017-09-15T10:34:06.809Z,4.87
2017-09-15T10:36:35.875Z,4.20
2017-09-15T10:39:04.202Z,2.50
2017-09-15T10:41:32.519Z,6.20
2017-09-15T10:44:00.823Z,4.97
2017-09-15T10:46:29.901Z,3.83
2017-09-15T10:48:58.194Z,3.67
2017-09-15T10:51:27.265Z,3.43
2017-09-15T10:53:55.574Z,2.53
2017-09-15T10:56:24.661Z,4.17
2017-09-15T10:58:59.081Z,5.20
2017-09-15T11:01:28.181Z,5.20
2017-09-15T11:03:57.243Z,3.20
2017-09-15T11:06:25.537Z,3.47
2017-09-15T11:08:53.850Z,2.80
2017-09-15T11:11:22.154Z,3.80
2017-09-15T11:13:50.480Z,5.00
2017-09-15T11:16:19.551Z,4.67
2017-09-15T11:18:47.852Z,5.00
2017-09-15T11:21:16.921Z,2.23
2017-09-15T11:23:45.228Z,5.43
2017-09-15T11:26:13.553Z,4.73
2017-09-15T11:28:42.627Z,4.40
2017-09-15T11:31:10.989Z,2.23
2017-09-15T11:33:39.289Z,6.03
2017-09-15T11:36:07.599Z,2.70
2017-09-15T11:38:35.936Z,4.43
2017-09-15T11:41:04.235Z,3.13
2017-09-15T11:43:32.545Z,4.97
2017-09-15T11:46:01.662Z,5.80
2017-09-15T11:48:30.749Z,3.33
2017-09-15T11:50:59.853Z,5.63
2017-09-15T11:53:28.926Z,7.10
2017-09-15T11:55:57.242Z,4.57
2017-09-15T11:58:25.564Z,6.33
2017-09-15T12:00:53.874Z,6.10
2017-09-15T12:03:22.972Z,3.37
2017-09-15T12:05:52.051Z,7.30
2017-09-15T12:08:20.357Z,3.73
2017-09-15T12:10:48.682Z,3.07
2017-09-15T12:13:17.050Z,3.70
2017-09-15T12:15:45.362Z,6.70
2017-09-15T12:18:13.662Z,4.80
2017-09-15T12:20:42.742Z,5.20
2017-09-15T12:23:11.043Z,5.13
2017-09-15T12:25:39.364Z,3.00
2017-09-15T12:28:07.669Z,4.63
2017-09-15T12:30:35.981Z,8.10
2017-09-15T12:33:04.293Z,6.80
2017-09-15T12:35:32.629Z,4.80
2017-09-15T12:38:00.934Z,2.30
2017-09-15T12:40:29.267Z,3.30
2017-09-15T12:42:58.351Z,6.03
2017-09-15T12:45:26.681Z,5.40
2017-09-15T12:47:54.981Z,3.70
2017-09-15T12:50:23.283Z,7.00
2017-09-15T12:52:51.594Z,6.17
2017-09-15T12:55:19.905Z,4.80
2017-09-15T12:57:48.236Z,3.93
2017-09-15T13:00:16.557Z,2.20
2017-09-15T13:02:44.858Z,2.87
2017-09-15T13:05:13.164Z,6.47
2017-09-15T13:07:42.226Z,2.93
2017-09-15T13:10:10.523Z,3.23
2017-09-15T13:12:39.638Z,4.83
2017-09-15T13:15:08.695Z,2.57
2017-09-15T13:17:36.989Z,5.40
2017-09-15T13:20:06.103Z,4.90
2017-09-15T13:22:34.409Z,14.33
2017-09-15T13:25:02.708Z,3.50
2017-09-15T13:27:31.027Z,2.20
2017-09-15T13:30:00.091Z,2.90
2017-09-15T13:32:28.401Z,3.33
2017-09-15T13:34:57.461Z,3.53
2017-09-15T13:37:25.791Z,2.40
2017-09-15T13:39:54.096Z,2.83
2017-09-15T13:42:22.421Z,6.53
2017-09-15T13:44:51.497Z,1.70
2017-09-15T13:47:19.809Z,4.80
2017-09-15T13:49:48.127Z,12.60
2017-09-15T13:52:16.434Z,2.13
2017-09-15T13:54:44.747Z,10.60
2017-09-15T13:57:13.066Z,5.00
2017-09-15T13:59:41.381Z,2.70
2017-09-15T14:02:10.446Z,9.60
2017-09-15T14:04:38.765Z,9.03
2017-09-15T14:07:07.830Z,7.47
2017-09-15T14:09:36.162Z,3.70
2017-09-15T14:12:04.462Z,5.53
2017-09-15T14:14:32.772Z,4.20
2017-09-15T14:17:01.854Z,4.57
2017-09-15T14:19:30.149Z,5.50
2017-09-15T14:21:59.235Z,8.40
2017-09-15T14:24:27.563Z,7.60
2017-09-15T14:26:55.878Z,5.70
2017-09-15T14:29:24.173Z,3.83
2017-09-15T14:31:53.283Z,4.20
2017-09-15T14:34:22.350Z,5.27
2017-09-15T14:36:50.646Z,3.93
2017-09-15T14:39:19.778Z,7.10
2017-09-15T14:41:48.077Z,4.50
2017-09-15T14:44:16.407Z,6.50
2017-09-15T14:46:45.465Z,1.30
2017-09-15T14:49:13.777Z,5.90
2017-09-15T14:51:42.847Z,1.90
2017-09-15T14:54:11.192Z,3.80
2017-09-15T14:56:39.490Z,4.70
2017-09-15T14:59:07.781Z,4.53
2017-09-15T15:01:36.111Z,2.50
2017-09-15T15:04:04.401Z,5.30
2017-09-15T15:06:32.705Z,2.87
2017-09-15T15:09:01.015Z,2.03
2017-09-15T15:11:30.089Z,4.10
2017-09-15T15:13:58.395Z,1.10
2017-09-15T15:16:26.730Z,2.30
2017-09-15T15:18:55.034Z,1.93
2017-09-15T15:21:24.111Z,2.83
2017-09-15T15:23:52.417Z,3.20
2017-09-15T15:26:21.481Z,2.10
2017-09-15T15:28:49.801Z,5.93
2017-09-15T15:31:18.117Z,4.00
2017-09-15T15:33:47.189Z,2.33
2017-09-15T15:36:15.496Z,6.13
2017-09-15T15:38:43.847Z,7.53
2017-09-15T15:41:12.144Z,5.23
2017-09-15T15:43:40.459Z,2.63
2017-09-15T15:46:09.539Z,1.50
2017-09-15T15:48:38.614Z,1.70
2017-09-15T15:51:06.924Z,3.03
2017-09-15T15:53:35.230Z,6.10
2017-09-15T15:56:03.530Z,4.03
2017-09-15T15:58:31.852Z,2.80
2017-09-15T16:01:00.955Z,2.10
2017-09-15T16:03:30.017Z,2.20
2017-09-15T16:05:58.323Z,3.60
2017-09-15T16:08:27.390Z,4.20
2017-09-15T16:10:55.685Z,4.00
2017-09-15T16:13:24.000Z,3.07
2017-09-15T16:15:52.304Z,4.87
2017-09-15T16:18:20.617Z,4.30
2017-09-15T16:20:48.930Z,2.60
2017-09-15T16:23:17.266Z,5.70
2017-09-15T16:25:46.348Z,4.80
2017-09-15T16:28:14.649Z,5.60
2017-09-15T16:30:43.739Z,1.57
2017-09-15T16:33:12.055Z,1.83
2017-09-15T16:35:40.366Z,2.80
2017-09-15T16:38:14.131Z,3.47
2017-09-15T16:40:47.937Z,2.37
2017-09-15T16:43:21.640Z,2.60
2017-09-15T16:45:55.445Z,2.43
2017-09-15T16:48:29.055Z,5.30
2017-09-15T16:50:57.366Z,2.40
2017-09-15T16:53:25.676Z,3.43
2017-09-15T16:55:54.788Z,5.07
2017-09-15T16:58:23.098Z,4.63
2017-09-15T17:00:51.403Z,1.90
2017-09-15T17:03:19.729Z,9.63
2017-09-15T17:05:48.030Z,14.33
2017-09-15T17:08:16.343Z,35.40
2017-09-15T17:10:44.649Z,16.93
2017-09-15T17:13:13.722Z,9.60
2017-09-15T17:15:42.095Z,7.33
2017-09-15T17:18:10.455Z,10.10
2017-09-15T17:20:38.765Z,5.53
2017-09-15T17:23:07.074Z,1.57
2017-09-15T17:25:35.382Z,1.80
2017-09-15T17:28:03.678Z,3.13
2017-09-15T17:30:32.020Z,10.60
2017-09-15T17:33:00.319Z,6.70
2017-09-15T17:35:28.645Z,3.87
2017-09-15T17:37:57.757Z,2.00
2017-09-15T17:40:26.055Z,2.07
2017-09-15T17:42:54.366Z,4.87
2017-09-15T17:45:22.683Z,1.90
2017-09-15T17:47:51.051Z,3.00
2017-09-15T17:50:20.121Z,2.27
2017-09-15T17:52:49.174Z,3.90
2017-09-15T17:55:18.302Z,1.90
2017-09-15T17:57:46.638Z,7.63
2017-09-15T18:00:14.959Z,5.63
2017-09-15T18:02:43.262Z,2.70
2017-09-15T18:05:12.341Z,6.17
2017-09-15T18:07:40.653Z,6.80
2017-09-15T18:10:08.991Z,6.57
2017-09-15T18:12:37.338Z,40.53
2017-09-15T18:15:05.665Z,47.00
2017-09-15T18:17:34.741Z,3.37
2017-09-15T18:20:03.071Z,3.30
2017-09-15T18:22:31.370Z,6.40
2017-09-15T18:24:59.752Z,4.13
2017-09-15T18:27:28.066Z,2.93
2017-09-15T18:29:56.367Z,6.40
2017-09-15T18:32:24.682Z,4.17
2017-09-15T18:34:53.757Z,4.20
2017-09-15T18:37:22.137Z,4.37
2017-09-15T18:39:50.452Z,3.43
2017-09-15T18:42:18.771Z,3.97
2017-09-15T18:44:47.118Z,4.50
2017-09-15T18:47:15.434Z,4.63
2017-09-15T18:49:43.739Z,2.47
2017-09-15T18:52:12.081Z,2.67
2017-09-15T18:54:41.158Z,3.13
2017-09-15T18:57:10.267Z,3.00
2017-09-15T18:59:38.590Z,8.13
2017-09-15T19:02:06.889Z,2.10
2017-09-15T19:04:35.202Z,1.93
2017-09-15T19:07:04.389Z,2.40
2017-09-15T19:09:33.480Z,2.90
2017-09-15T19:12:02.553Z,9.33
2017-09-15T19:14:30.890Z,2.83
2017-09-15T19:16:59.189Z,2.13
2017-09-15T19:19:27.523Z,5.80
2017-09-15T19:21:55.835Z,2.67
2017-09-15T19:24:24.196Z,4.73
2017-09-15T19:26:52.543Z,9.43
2017-09-15T19:29:21.661Z,2.13
2017-09-15T19:31:50.019Z,3.10
2017-09-15T19:34:19.094Z,2.40
2017-09-15T19:36:47.410Z,3.50
2017-09-15T19:39:15.717Z,4.40
2017-09-15T19:41:44.076Z,7.27
2017-09-15T19:44:12.387Z,3.67
2017-09-15T19:46:40.720Z,5.80
2017-09-15T19:49:09.033Z,3.80
2017-09-15T19:51:37.380Z,5.73
2017-09-15T19:54:05.736Z,7.07
2017-09-15T19:56:34.818Z,6.00
2017-09-15T19:59:03.142Z,4.87
2017-09-15T20:01:31.450Z,4.20
2017-09-15T20:04:00.581Z,4.97
2017-09-15T20:06:29.657Z,7.73
2017-09-15T20:08:57.967Z,2.90
2017-09-15T20:11:26.325Z,4.77
2017-09-15T20:13:55.467Z,8.40
2017-09-15T20:16:23.784Z,15.50
2017-09-15T20:18:52.109Z,7.60
2017-09-15T20:21:20.410Z,4.10
2017-09-15T20:23:48.763Z,3.87
2017-09-15T20:26:17.111Z,3.37
2017-09-15T20:28:45.418Z,6.43
2017-09-15T20:31:13.734Z,4.90
2017-09-15T20:33:42.070Z,5.10
2017-09-15T20:36:10.377Z,5.07
2017-09-15T20:38:38.685Z,7.90
2017-09-15T20:41:07.049Z,10.83
2017-09-15T20:43:35.370Z,7.27
2017-09-15T20:46:03.718Z,9.30
2017-09-15T20:48:32.069Z,7.73
2017-09-15T20:51:00.426Z,3.60
2017-09-15T20:53:28.743Z,12.13
2017-09-15T20:55:57.042Z,8.63
2017-09-15T20:58:26.120Z,5.33
2017-09-15T21:00:54.422Z,6.83
2017-09-15T21:03:23.507Z,4.20
2017-09-15T21:05:51.803Z,6.87
2017-09-15T21:08:20.877Z,5.40
2017-09-15T21:10:49.169Z,6.07
2017-09-15T21:13:18.233Z,5.63
2017-09-15T21:15:46.529Z,5.57
2017-09-15T21:18:16.137Z,3.43
2017-09-15T21:20:45.229Z,3.50
2017-09-15T21:23:14.309Z,24.70
2017-09-15T21:25:42.618Z,14.50
2017-09-15T21:28:11.693Z,5.73
2017-09-15T21:30:40.005Z,11.10
2017-09-15T21:33:08.328Z,14.10
2017-09-15T21:35:36.638Z,11.23
2017-09-15T21:38:05.786Z,3.67
2017-09-15T21:40:34.117Z,10.00
2017-09-15T21:43:03.189Z,5.30
2017-09-15T21:45:31.489Z,7.30
2017-09-15T21:48:00.571Z,6.20
2017-09-15T21:50:29.631Z,4.87
2017-09-15T21:52:57.946Z,3.23
2017-09-15T21:55:27.018Z,6.00
2017-09-15T21:57:55.342Z,6.93
2017-09-15T22:00:23.663Z,6.50
2017-09-15T22:02:51.992Z,7.13
2017-09-15T22:05:20.326Z,6.73
2017-09-15T22:07:48.662Z,7.33
2017-09-15T22:10:16.957Z,4.43
2017-09-15T22:12:45.265Z,3.90
2017-09-15T22:15:13.596Z,7.73
2017-09-15T22:17:41.903Z,5.47
2017-09-15T22:20:10.997Z,6.00
2017-09-15T22:22:39.298Z,6.57
2017-09-15T22:25:07.607Z,4.70
2017-09-15T22:27:35.926Z,6.63
2017-09-15T22:30:04.268Z,5.80
2017-09-15T22:32:32.586Z,5.63
2017-09-15T22:35:00.889Z,3.20
2017-09-15T22:37:29.190Z,6.70
2017-09-15T22:39:57.530Z,3.80
2017-09-15T22:42:25.835Z,4.47
2017-09-15T22:44:54.901Z,4.00
2017-09-15T22:47:23.216Z,7.60
2017-09-15T22:49:51.537Z,5.60
2017-09-15T22:52:19.846Z,5.53
2017-09-15T22:54:48.163Z,12.73
2017-09-15T22:57:16.491Z,4.10
2017-09-15T22:59:44.795Z,10.23
2017-09-15T23:02:13.873Z,4.20
2017-09-15T23:04:42.218Z,8.40
2017-09-15T23:07:10.513Z,6.37
2017-09-15T23:09:38.832Z,5.97
2017-09-15T23:12:07.150Z,6.00
2017-09-15T23:14:35.463Z,7.10
2017-09-15T23:17:04.543Z,8.57
2017-09-15T23:19:32.865Z,5.17
2017-09-15T23:22:01.174Z,3.30
2017-09-15T23:24:29.487Z,4.13
2017-09-15T23:26:58.013Z,5.73
2017-09-15T23:29:26.338Z,7.30
2017-09-15T23:31:54.633Z,5.07
2017-09-15T23:34:23.702Z,4.20
2017-09-15T23:36:52.006Z,4.63
2017-09-15T23:39:21.065Z,5.83
2017-09-15T23:41:49.377Z,4.60
2017-09-15T23:44:17.686Z,4.50
2017-09-15T23:46:45.984Z,7.00
2017-09-15T23:49:14.385Z,6.87
2017-09-15T23:51:42.711Z,7.60
2017-09-15T23:54:11.014Z,7.30
2017-09-15T23:56:39.305Z,4.70
2017-09-15T23:59:08.378Z,4.73
